sensor_id;sensor_type;location;lat;lon;timestamp;pressure;altitude;pressure_sealevel;temperature;humidity
49515;BME280;35415;47.870;16.058;2023-04-27T00:01:14;97551.59;;;5.54;82.93
49515;BME280;35415;47.870;16.058;2023-04-27T00:03:42;97561.25;;;5.55;83.22
49515;BME280;35415;47.870;16.058;2023-04-27T00:06:10;97534.53;;;5.43;83.60
49515;BME280;35415;47.870;16.058;2023-04-27T00:08:38;97563.47;;;5.58;83.87
49515;BME280;35415;47.870;16.058;2023-04-27T00:11:05;97546.50;;;5.52;83.67
49515;BME280;35415;47.870;16.058;2023-04-27T00:13:32;97564.13;;;5.53;84.33
49515;BME280;35415;47.870;16.058;2023-04-27T00:15:59;97548.44;;;5.45;83.76
49515;BME280;35415;47.870;16.058;2023-04-27T00:18:29;97557.16;;;5.52;85.15
49515;BME280;35415;47.870;16.058;2023-04-27T00:20:58;97552.06;;;5.51;85.14
49515;BME280;35415;47.870;16.058;2023-04-27T00:23:25;97546.25;;;5.42;85.28
49515;BME280;35415;47.870;16.058;2023-04-27T00:25:52;97540.75;;;5.37;85.57
49515;BME280;35415;47.870;16.058;2023-04-27T00:28:20;97514.06;;;5.25;85.50
49515;BME280;35415;47.870;16.058;2023-04-27T00:30:47;97554.38;;;5.47;85.90
49515;BME280;35415;47.870;16.058;2023-04-27T00:33:16;97551.69;;;5.47;85.48
49515;BME280;35415;47.870;16.058;2023-04-27T00:35:44;97543.88;;;5.34;85.66
49515;BME280;35415;47.870;16.058;2023-04-27T00:38:11;97549.38;;;5.39;85.91
49515;BME280;35415;47.870;16.058;2023-04-27T00:40:38;97554.03;;;5.43;85.56
49515;BME280;35415;47.870;16.058;2023-04-27T00:43:06;97549.72;;;5.42;85.70
49515;BME280;35415;47.870;16.058;2023-04-27T00:45:36;97547.88;;;5.43;86.02
49515;BME280;35415;47.870;16.058;2023-04-27T00:48:06;97544.63;;;5.41;86.08
49515;BME280;35415;47.870;16.058;2023-04-27T00:50:34;97546.47;;;5.40;86.34
49515;BME280;35415;47.870;16.058;2023-04-27T00:53:05;97557.97;;;5.41;86.21
49515;BME280;35415;47.870;16.058;2023-04-27T00:55:32;97550.41;;;5.38;86.48
49515;BME280;35415;47.870;16.058;2023-04-27T00:57:59;97554.09;;;5.37;86.06
49515;BME280;35415;47.870;16.058;2023-04-27T01:00:27;97515.06;;;5.12;85.83
49515;BME280;35415;47.870;16.058;2023-04-27T01:02:54;97544.94;;;5.33;86.49
49515;BME280;35415;47.870;16.058;2023-04-27T01:05:23;97545.16;;;5.31;86.58
49515;BME280;35415;47.870;16.058;2023-04-27T01:07:51;97547.25;;;5.29;86.83
49515;BME280;35415;47.870;16.058;2023-04-27T01:10:19;97550.38;;;5.26;87.06
49515;BME280;35415;47.870;16.058;2023-04-27T01:12:46;97527.22;;;5.08;86.68
49515;BME280;35415;47.870;16.058;2023-04-27T01:15:13;97546.53;;;5.22;86.73
49515;BME280;35415;47.870;16.058;2023-04-27T01:17:40;97541.72;;;5.12;86.76
49515;BME280;35415;47.870;16.058;2023-04-27T01:20:09;97553.56;;;5.17;87.00
49515;BME280;35415;47.870;16.058;2023-04-27T01:22:36;97557.72;;;5.12;87.22
49515;BME280;35415;47.870;16.058;2023-04-27T01:25:07;97549.81;;;5.06;87.20
49515;BME280;35415;47.870;16.058;2023-04-27T01:27:34;97553.53;;;5.05;87.31
49515;BME280;35415;47.870;16.058;2023-04-27T01:30:01;97550.94;;;4.98;87.62
49515;BME280;35415;47.870;16.058;2023-04-27T01:32:28;97550.81;;;4.93;87.23
49515;BME280;35415;47.870;16.058;2023-04-27T01:34:55;97547.19;;;4.88;88.02
49515;BME280;35415;47.870;16.058;2023-04-27T01:37:22;97555.78;;;4.90;87.69
49515;BME280;35415;47.870;16.058;2023-04-27T01:39:49;97556.06;;;4.81;88.00
49515;BME280;35415;47.870;16.058;2023-04-27T01:42:18;97558.00;;;4.74;88.09
49515;BME280;35415;47.870;16.058;2023-04-27T01:44:45;97537.50;;;4.57;88.45
49515;BME280;35415;47.870;16.058;2023-04-27T01:47:14;97560.22;;;4.59;88.67
49515;BME280;35415;47.870;16.058;2023-04-27T01:49:42;97563.34;;;4.56;89.31
49515;BME280;35415;47.870;16.058;2023-04-27T01:52:09;97559.47;;;4.52;89.05
49515;BME280;35415;47.870;16.058;2023-04-27T01:54:36;97560.34;;;4.46;89.79
49515;BME280;35415;47.870;16.058;2023-04-27T01:57:03;97564.38;;;4.37;89.74
49515;BME280;35415;47.870;16.058;2023-04-27T01:59:31;97549.09;;;4.26;90.15
49515;BME280;35415;47.870;16.058;2023-04-27T02:01:58;97567.66;;;4.32;91.33
49515;BME280;35415;47.870;16.058;2023-04-27T02:04:26;97562.19;;;4.27;90.87
49515;BME280;35415;47.870;16.058;2023-04-27T02:06:53;97546.41;;;4.07;90.47
49515;BME280;35415;47.870;16.058;2023-04-27T02:09:20;97579.25;;;4.19;90.97
49515;BME280;35415;47.870;16.058;2023-04-27T02:11:47;97573.56;;;4.16;91.27
49515;BME280;35415;47.870;16.058;2023-04-27T02:14:14;97573.63;;;4.09;91.45
49515;BME280;35415;47.870;16.058;2023-04-27T02:16:43;97567.75;;;4.01;91.85
49515;BME280;35415;47.870;16.058;2023-04-27T02:19:10;97575.13;;;3.99;92.30
49515;BME280;35415;47.870;16.058;2023-04-27T02:21:38;97562.16;;;3.84;92.65
49515;BME280;35415;47.870;16.058;2023-04-27T02:24:06;97553.22;;;3.78;92.47
49515;BME280;35415;47.870;16.058;2023-04-27T02:26:33;97575.88;;;3.87;93.08
49515;BME280;35415;47.870;16.058;2023-04-27T02:29:00;97546.13;;;3.66;92.99
49515;BME280;35415;47.870;16.058;2023-04-27T02:31:28;97567.97;;;3.74;93.49
49515;BME280;35415;47.870;16.058;2023-04-27T02:33:56;97578.19;;;3.77;93.97
49515;BME280;35415;47.870;16.058;2023-04-27T02:36:24;97552.13;;;3.61;93.74
49515;BME280;35415;47.870;16.058;2023-04-27T02:38:52;97577.22;;;3.72;94.10
49515;BME280;35415;47.870;16.058;2023-04-27T02:41:19;97574.16;;;3.68;94.44
49515;BME280;35415;47.870;16.058;2023-04-27T02:43:46;97568.81;;;3.68;94.52
49515;BME280;35415;47.870;16.058;2023-04-27T02:46:13;97569.47;;;3.63;94.68
49515;BME280;35415;47.870;16.058;2023-04-27T02:48:40;97562.59;;;3.56;95.30
49515;BME280;35415;47.870;16.058;2023-04-27T02:51:08;97564.84;;;3.52;95.14
49515;BME280;35415;47.870;16.058;2023-04-27T02:53:35;97568.94;;;3.55;95.39
49515;BME280;35415;47.870;16.058;2023-04-27T02:56:03;97568.53;;;3.51;95.48
49515;BME280;35415;47.870;16.058;2023-04-27T02:58:30;97571.00;;;3.53;95.82
49515;BME280;35415;47.870;16.058;2023-04-27T03:00:57;97576.50;;;3.51;95.48
49515;BME280;35415;47.870;16.058;2023-04-27T03:03:24;97565.50;;;3.48;95.58
49515;BME280;35415;47.870;16.058;2023-04-27T03:05:51;97566.16;;;3.43;95.37
49515;BME280;35415;47.870;16.058;2023-04-27T03:08:19;97565.94;;;3.45;95.31
49515;BME280;35415;47.870;16.058;2023-04-27T03:10:46;97566.16;;;3.43;95.59
49515;BME280;35415;47.870;16.058;2023-04-27T03:13:13;97559.03;;;3.37;95.31
49515;BME280;35415;47.870;16.058;2023-04-27T03:15:40;97573.97;;;3.38;95.33
49515;BME280;35415;47.870;16.058;2023-04-27T03:18:07;97576.84;;;3.37;94.96
49515;BME280;35415;47.870;16.058;2023-04-27T03:20:35;97572.56;;;3.29;95.17
49515;BME280;35415;47.870;16.058;2023-04-27T03:23:02;97584.63;;;3.31;95.35
49515;BME280;35415;47.870;16.058;2023-04-27T03:25:31;97584.22;;;3.28;95.68
49515;BME280;35415;47.870;16.058;2023-04-27T03:27:58;97558.75;;;3.14;95.84
49515;BME280;35415;47.870;16.058;2023-04-27T03:30:25;97573.66;;;3.21;95.93
49515;BME280;35415;47.870;16.058;2023-04-27T03:32:52;97576.91;;;3.23;95.97
49515;BME280;35415;47.870;16.058;2023-04-27T03:35:19;97580.00;;;3.20;96.51
49515;BME280;35415;47.870;16.058;2023-04-27T03:37:46;97579.19;;;3.20;96.32
49515;BME280;35415;47.870;16.058;2023-04-27T03:40:13;97580.19;;;3.19;96.40
49515;BME280;35415;47.870;16.058;2023-04-27T03:42:41;97577.56;;;3.12;96.21
49515;BME280;35415;47.870;16.058;2023-04-27T03:45:09;97589.41;;;3.16;96.94
49515;BME280;35415;47.870;16.058;2023-04-27T03:47:37;97581.41;;;3.16;96.33
49515;BME280;35415;47.870;16.058;2023-04-27T03:50:05;97593.09;;;3.15;96.85
49515;BME280;35415;47.870;16.058;2023-04-27T03:52:32;97581.63;;;3.15;97.13
49515;BME280;35415;47.870;16.058;2023-04-27T03:54:59;97593.69;;;3.17;96.73
49515;BME280;35415;47.870;16.058;2023-04-27T03:57:26;97590.66;;;3.14;97.30
49515;BME280;35415;47.870;16.058;2023-04-27T03:59:56;97583.75;;;3.06;97.02
49515;BME280;35415;47.870;16.058;2023-04-27T04:02:23;97586.56;;;3.11;97.62
49515;BME280;35415;47.870;16.058;2023-04-27T04:04:50;97589.00;;;3.13;97.37
49515;BME280;35415;47.870;16.058;2023-04-27T04:07:17;97591.66;;;3.13;97.60
49515;BME280;35415;47.870;16.058;2023-04-27T04:09:44;97585.38;;;3.07;97.58
49515;BME280;35415;47.870;16.058;2023-04-27T04:12:13;97569.66;;;2.99;97.45
49515;BME280;35415;47.870;16.058;2023-04-27T04:14:40;97591.06;;;3.11;97.70
49515;BME280;35415;47.870;16.058;2023-04-27T04:17:10;97601.50;;;3.12;97.87
49515;BME280;35415;47.870;16.058;2023-04-27T04:19:39;97596.16;;;3.12;98.31
49515;BME280;35415;47.870;16.058;2023-04-27T04:22:06;97596.16;;;3.12;98.29
49515;BME280;35415;47.870;16.058;2023-04-27T04:24:33;97590.84;;;3.12;98.01
49515;BME280;35415;47.870;16.058;2023-04-27T04:27:00;97594.31;;;3.13;98.23
49515;BME280;35415;47.870;16.058;2023-04-27T04:29:27;97566.59;;;2.95;97.90
49515;BME280;35415;47.870;16.058;2023-04-27T04:31:55;97604.53;;;3.16;97.94
49515;BME280;35415;47.870;16.058;2023-04-27T04:34:23;97600.25;;;3.15;98.11
49515;BME280;35415;47.870;16.058;2023-04-27T04:36:50;97601.91;;;3.09;98.32
49515;BME280;35415;47.870;16.058;2023-04-27T04:39:17;97606.16;;;3.17;97.97
49515;BME280;35415;47.870;16.058;2023-04-27T04:41:45;97601.50;;;3.12;98.29
49515;BME280;35415;47.870;16.058;2023-04-27T04:44:14;97601.69;;;3.11;98.23
49515;BME280;35415;47.870;16.058;2023-04-27T04:46:41;97604.31;;;3.17;98.15
49515;BME280;35415;47.870;16.058;2023-04-27T04:49:08;97564.81;;;2.89;97.96
49515;BME280;35415;47.870;16.058;2023-04-27T04:51:40;97601.66;;;3.17;98.17
49515;BME280;35415;47.870;16.058;2023-04-27T04:54:07;97608.00;;;3.23;97.97
49515;BME280;35415;47.870;16.058;2023-04-27T04:56:34;97606.16;;;3.23;98.30
49515;BME280;35415;47.870;16.058;2023-04-27T04:59:02;97605.13;;;3.24;98.07
49515;BME280;35415;47.870;16.058;2023-04-27T05:01:29;97603.06;;;3.26;98.63
49515;BME280;35415;47.870;16.058;2023-04-27T05:03:56;97608.16;;;3.28;98.42
49515;BME280;35415;47.870;16.058;2023-04-27T05:06:23;97613.03;;;3.31;97.98
49515;BME280;35415;47.870;16.058;2023-04-27T05:08:52;97604.91;;;3.26;98.49
49515;BME280;35415;47.870;16.058;2023-04-27T05:11:19;97606.16;;;3.23;98.25
49515;BME280;35415;47.870;16.058;2023-04-27T05:13:46;97620.19;;;3.37;98.36
49515;BME280;35415;47.870;16.058;2023-04-27T05:16:13;97613.66;;;3.33;98.58
49515;BME280;35415;47.870;16.058;2023-04-27T05:18:40;97578.38;;;3.13;98.64
49515;BME280;35415;47.870;16.058;2023-04-27T05:21:13;97608.75;;;3.37;98.22
49515;BME280;35415;47.870;16.058;2023-04-27T05:23:40;97620.16;;;3.44;97.94
49515;BME280;35415;47.870;16.058;2023-04-27T05:26:13;97627.84;;;3.52;98.46
49515;BME280;35415;47.870;16.058;2023-04-27T05:28:40;97565.25;;;3.18;97.73
49515;BME280;35415;47.870;16.058;2023-04-27T05:31:07;97633.16;;;3.58;98.30
49515;BME280;35415;47.870;16.058;2023-04-27T05:33:34;97587.47;;;3.37;98.21
49515;BME280;35415;47.870;16.058;2023-04-27T05:36:01;97625.72;;;3.67;98.38
49515;BME280;35415;47.870;16.058;2023-04-27T05:38:28;97626.94;;;3.71;98.25
49515;BME280;35415;47.870;16.058;2023-04-27T05:40:55;97625.25;;;3.77;97.84
49515;BME280;35415;47.870;16.058;2023-04-27T05:43:24;97599.72;;;3.69;97.63
49515;BME280;35415;47.870;16.058;2023-04-27T05:45:52;97631.53;;;3.89;97.57
49515;BME280;35415;47.870;16.058;2023-04-27T05:48:19;97627.19;;;3.95;97.38
49515;BME280;35415;47.870;16.058;2023-04-27T05:50:46;97627.34;;;4.00;97.00
49515;BME280;35415;47.870;16.058;2023-04-27T05:53:13;97627.13;;;4.01;96.70
49515;BME280;35415;47.870;16.058;2023-04-27T05:55:41;97620.94;;;4.07;96.35
49515;BME280;35415;47.870;16.058;2023-04-27T05:58:09;97607.03;;;4.05;96.59
49515;BME280;35415;47.870;16.058;2023-04-27T06:00:37;97630.00;;;4.25;95.89
49515;BME280;35415;47.870;16.058;2023-04-27T06:03:04;97632.59;;;4.31;95.98
49515;BME280;35415;47.870;16.058;2023-04-27T06:05:31;97630.09;;;4.36;95.16
49515;BME280;35415;47.870;16.058;2023-04-27T06:07:59;97623.78;;;4.37;94.92
49515;BME280;35415;47.870;16.058;2023-04-27T06:10:27;97634.06;;;4.52;95.17
49515;BME280;35415;47.870;16.058;2023-04-27T06:12:54;97595.09;;;4.33;94.64
49515;BME280;35415;47.870;16.058;2023-04-27T06:15:21;97643.91;;;4.70;94.18
49515;BME280;35415;47.870;16.058;2023-04-27T06:17:50;97632.63;;;4.74;93.61
49515;BME280;35415;47.870;16.058;2023-04-27T06:20:17;97643.56;;;4.84;93.10
49515;BME280;35415;47.870;16.058;2023-04-27T06:22:44;97644.09;;;4.93;92.31
49515;BME280;35415;47.870;16.058;2023-04-27T06:25:15;97643.78;;;5.01;91.39
49515;BME280;35415;47.870;16.058;2023-04-27T06:27:42;97640.47;;;5.06;90.84
49515;BME280;35415;47.870;16.058;2023-04-27T06:30:10;97630.75;;;5.11;90.94
49515;BME280;35415;47.870;16.058;2023-04-27T06:32:37;97649.84;;;5.27;89.75
49515;BME280;35415;47.870;16.058;2023-04-27T06:35:07;97643.84;;;5.31;89.72
49515;BME280;35415;47.870;16.058;2023-04-27T06:37:35;97640.72;;;5.34;88.64
49515;BME280;35415;47.870;16.058;2023-04-27T06:40:02;97647.88;;;5.52;87.94
49515;BME280;35415;47.870;16.058;2023-04-27T06:42:29;97641.06;;;5.56;87.77
49515;BME280;35415;47.870;16.058;2023-04-27T06:44:58;97639.22;;;5.57;87.64
49515;BME280;35415;47.870;16.058;2023-04-27T06:47:25;97667.25;;;5.78;86.62
49515;BME280;35415;47.870;16.058;2023-04-27T06:49:52;97622.28;;;5.63;86.35
49515;BME280;35415;47.870;16.058;2023-04-27T06:52:21;97651.47;;;5.88;86.65
49515;BME280;35415;47.870;16.058;2023-04-27T06:54:48;97632.44;;;5.84;85.39
49515;BME280;35415;47.870;16.058;2023-04-27T06:57:16;97665.19;;;6.10;84.62
49515;BME280;35415;47.870;16.058;2023-04-27T06:59:43;97664.81;;;6.18;83.85
49515;BME280;35415;47.870;16.058;2023-04-27T07:02:10;97658.34;;;6.25;83.50
49515;BME280;35415;47.870;16.058;2023-04-27T07:04:38;97655.34;;;6.33;82.85
49515;BME280;35415;47.870;16.058;2023-04-27T07:07:05;97641.75;;;6.35;82.40
49515;BME280;35415;47.870;16.058;2023-04-27T07:09:33;97650.59;;;6.47;82.28
49515;BME280;35415;47.870;16.058;2023-04-27T07:12:00;97655.38;;;6.57;80.56
49515;BME280;35415;47.870;16.058;2023-04-27T07:14:28;97612.03;;;6.43;79.47
49515;BME280;35415;47.870;16.058;2023-04-27T07:16:55;97643.16;;;6.73;78.26
49515;BME280;35415;47.870;16.058;2023-04-27T07:19:22;97637.44;;;6.81;77.88
49515;BME280;35415;47.870;16.058;2023-04-27T07:21:50;97643.28;;;6.89;76.23
49515;BME280;35415;47.870;16.058;2023-04-27T07:24:17;97644.53;;;6.99;75.64
49515;BME280;35415;47.870;16.058;2023-04-27T07:26:46;97644.16;;;7.07;74.59
49515;BME280;35415;47.870;16.058;2023-04-27T07:29:13;97646.47;;;7.15;73.68
49515;BME280;35415;47.870;16.058;2023-04-27T07:31:41;97631.22;;;7.15;73.03
49515;BME280;35415;47.870;16.058;2023-04-27T07:34:08;97641.75;;;7.34;70.36
49515;BME280;35415;47.870;16.058;2023-04-27T07:36:36;97644.66;;;7.44;69.80
49515;BME280;35415;47.870;16.058;2023-04-27T07:39:04;97640.06;;;7.56;70.11
49515;BME280;35415;47.870;16.058;2023-04-27T07:41:31;97640.50;;;7.65;67.21
49515;BME280;35415;47.870;16.058;2023-04-27T07:44:00;97644.75;;;7.77;66.05
49515;BME280;35415;47.870;16.058;2023-04-27T07:46:27;97616.03;;;7.73;66.16
49515;BME280;35415;47.870;16.058;2023-04-27T07:48:56;97643.56;;;8.02;64.38
49515;BME280;35415;47.870;16.058;2023-04-27T07:51:24;97640.81;;;8.13;63.63
49515;BME280;35415;47.870;16.058;2023-04-27T07:57:14;97636.25;;;8.42;61.86
49515;BME280;35415;47.870;16.058;2023-04-27T07:59:43;97642.31;;;8.55;61.21
49515;BME280;35415;47.870;16.058;2023-04-27T08:02:10;97640.34;;;8.67;59.22
49515;BME280;35415;47.870;16.058;2023-04-27T08:04:46;97641.06;;;8.79;62.65
49515;BME280;35415;47.870;16.058;2023-04-27T08:07:14;97649.84;;;8.91;59.91
49515;BME280;35415;47.870;16.058;2023-04-27T08:10:06;97615.44;;;8.88;61.31
49515;BME280;35415;47.870;16.058;2023-04-27T08:12:34;97643.19;;;9.16;58.83
49515;BME280;35415;47.870;16.058;2023-04-27T08:15:04;97639.06;;;9.30;59.33
49515;BME280;35415;47.870;16.058;2023-04-27T08:17:32;97635.69;;;9.40;59.67
49515;BME280;35415;47.870;16.058;2023-04-27T08:19:59;97638.53;;;9.55;59.07
49515;BME280;35415;47.870;16.058;2023-04-27T08:22:26;97637.59;;;9.66;56.87
49515;BME280;35415;47.870;16.058;2023-04-27T08:24:53;97638.03;;;9.80;59.00
49515;BME280;35415;47.870;16.058;2023-04-27T08:27:20;97597.06;;;9.68;56.03
49515;BME280;35415;47.870;16.058;2023-04-27T08:29:47;97621.28;;;10.00;56.39
49515;BME280;35415;47.870;16.058;2023-04-27T08:32:16;97625.13;;;10.09;56.09
49515;BME280;35415;47.870;16.058;2023-04-27T08:34:43;97634.47;;;10.28;55.15
49515;BME280;35415;47.870;16.058;2023-04-27T08:37:11;97627.03;;;10.40;54.68
49515;BME280;35415;47.870;16.058;2023-04-27T08:39:38;97595.50;;;10.31;55.59
49515;BME280;35415;47.870;16.058;2023-04-27T08:42:11;97605.84;;;10.49;56.06
49515;BME280;35415;47.870;16.058;2023-04-27T08:44:39;97632.69;;;10.81;54.95
49515;BME280;35415;47.870;16.058;2023-04-27T08:47:06;97597.91;;;10.69;54.47
49515;BME280;35415;47.870;16.058;2023-04-27T08:49:35;97623.13;;;11.00;54.28
49515;BME280;35415;47.870;16.058;2023-04-27T08:52:03;97630.75;;;11.19;53.33
49515;BME280;35415;47.870;16.058;2023-04-27T08:54:30;97635.13;;;11.35;52.66
49515;BME280;35415;47.870;16.058;2023-04-27T08:56:58;97629.00;;;11.50;52.85
49515;BME280;35415;47.870;16.058;2023-04-27T08:59:25;97629.28;;;11.58;52.61
49515;BME280;35415;47.870;16.058;2023-04-27T09:01:52;97618.81;;;11.72;52.88
49515;BME280;35415;47.870;16.058;2023-04-27T09:04:19;97624.00;;;11.89;50.46
49515;BME280;35415;47.870;16.058;2023-04-27T09:06:47;97619.19;;;12.01;49.70
49515;BME280;35415;47.870;16.058;2023-04-27T09:09:21;97591.13;;;11.97;51.66
49515;BME280;35415;47.870;16.058;2023-04-27T09:11:49;97622.97;;;12.30;50.13
49515;BME280;35415;47.870;16.058;2023-04-27T09:14:18;97613.25;;;12.34;49.54
49515;BME280;35415;47.870;16.058;2023-04-27T09:16:52;97613.53;;;12.48;48.03
49515;BME280;35415;47.870;16.058;2023-04-27T09:19:23;97579.53;;;12.42;48.03
49515;BME280;35415;47.870;16.058;2023-04-27T09:22:02;97614.59;;;12.78;49.20
49515;BME280;35415;47.870;16.058;2023-04-27T09:24:29;97616.72;;;12.86;47.31
49515;BME280;35415;47.870;16.058;2023-04-27T09:26:56;97617.50;;;12.97;47.07
49515;BME280;35415;47.870;16.058;2023-04-27T09:29:31;97596.47;;;12.93;47.30
49515;BME280;35415;47.870;16.058;2023-04-27T09:31:59;97568.91;;;12.91;47.25
49515;BME280;35415;47.870;16.058;2023-04-27T09:34:26;97607.16;;;13.24;46.83
49515;BME280;35415;47.870;16.058;2023-04-27T09:37:04;97588.53;;;13.22;45.84
49515;BME280;35415;47.870;16.058;2023-04-27T09:39:32;97605.75;;;13.42;45.85
49515;BME280;35415;47.870;16.058;2023-04-27T09:41:59;97582.78;;;13.39;44.86
49515;BME280;35415;47.870;16.058;2023-04-27T09:44:27;97598.66;;;13.61;46.14
49515;BME280;35415;47.870;16.058;2023-04-27T09:46:57;97582.69;;;13.60;45.47
49515;BME280;35415;47.870;16.058;2023-04-27T09:49:25;97554.59;;;13.55;44.64
49515;BME280;35415;47.870;16.058;2023-04-27T09:51:54;97601.44;;;13.90;43.70
49515;BME280;35415;47.870;16.058;2023-04-27T09:54:26;97592.22;;;13.91;44.28
49515;BME280;35415;47.870;16.058;2023-04-27T09:57:05;97598.56;;;14.10;45.20
49515;BME280;35415;47.870;16.058;2023-04-27T09:59:47;97579.13;;;14.08;44.37
49515;BME280;35415;47.870;16.058;2023-04-27T10:02:22;97588.19;;;14.28;41.16
49515;BME280;35415;47.870;16.058;2023-04-27T10:05:07;97581.28;;;14.40;44.62
49515;BME280;35415;47.870;16.058;2023-04-27T10:07:39;97584.25;;;14.49;43.32
49515;BME280;35415;47.870;16.058;2023-04-27T10:10:14;97588.00;;;14.53;43.48
49515;BME280;35415;47.870;16.058;2023-04-27T10:12:42;97566.91;;;14.50;41.50
49515;BME280;35415;47.870;16.058;2023-04-27T10:15:14;97560.63;;;14.55;42.63
49515;BME280;35415;47.870;16.058;2023-04-27T10:17:48;97574.88;;;14.65;41.96
49515;BME280;35415;47.870;16.058;2023-04-27T10:20:15;97572.03;;;14.81;39.87
49515;BME280;35415;47.870;16.058;2023-04-27T10:25:47;97560.25;;;14.90;39.51
49515;BME280;35415;47.870;16.058;2023-04-27T10:28:15;97572.59;;;15.01;42.34
49515;BME280;35415;47.870;16.058;2023-04-27T10:30:43;97535.06;;;14.90;41.94
49515;BME280;35415;47.870;16.058;2023-04-27T10:33:18;97478.22;;;14.66;42.03
49515;BME280;35415;47.870;16.058;2023-04-27T10:35:54;97507.66;;;14.96;42.14
49515;BME280;35415;47.870;16.058;2023-04-27T11:11:20;97562.78;;;15.72;38.38
49515;BME280;35415;47.870;16.058;2023-04-27T11:19:47;97470.97;;;15.04;38.29
49515;BME280;35415;47.870;16.058;2023-04-27T11:22:14;97556.63;;;15.67;36.86
49515;BME280;35415;47.870;16.058;2023-04-27T11:27:36;97567.97;;;15.69;38.92
49515;BME280;35415;47.870;16.058;2023-04-27T11:41:34;97558.94;;;15.54;37.48
49515;BME280;35415;47.870;16.058;2023-04-27T11:46:59;97539.94;;;15.35;38.42
49515;BME280;35415;47.870;16.058;2023-04-27T11:49:26;97559.06;;;15.44;38.52
49515;BME280;35415;47.870;16.058;2023-04-27T12:01:10;97560.25;;;15.57;39.81
49515;BME280;35415;47.870;16.058;2023-04-27T12:11:53;97483.16;;;15.25;39.10
49515;BME280;35415;47.870;16.058;2023-04-27T12:14:20;97550.09;;;15.86;40.83
49515;BME280;35415;47.870;16.058;2023-04-27T12:16:59;97402.38;;;14.90;39.30
49515;BME280;35415;47.870;16.058;2023-04-27T12:19:26;97482.81;;;15.51;37.37
49515;BME280;35415;47.870;16.058;2023-04-27T12:21:56;97467.47;;;15.41;37.91
49515;BME280;35415;47.870;16.058;2023-04-27T12:51:40;97539.94;;;16.43;37.09
49515;BME280;35415;47.870;16.058;2023-04-27T13:12:36;97466.91;;;16.28;36.90
49515;BME280;35415;47.870;16.058;2023-04-27T13:21:11;97522.81;;;16.75;38.62
49515;BME280;35415;47.870;16.058;2023-04-27T13:23:45;97475.44;;;16.21;35.93
49515;BME280;35415;47.870;16.058;2023-04-27T13:26:14;97393.03;;;15.71;36.51
49515;BME280;35415;47.870;16.058;2023-04-27T13:28:45;97530.09;;;16.61;35.55
49515;BME280;35415;47.870;16.058;2023-04-27T13:34:15;97437.03;;;16.01;37.05
49515;BME280;35415;47.870;16.058;2023-04-27T13:36:43;97393.44;;;15.78;35.90
49515;BME280;35415;47.870;16.058;2023-04-27T13:39:11;97521.56;;;16.54;34.77
49515;BME280;35415;47.870;16.058;2023-04-27T13:41:40;97435.31;;;16.05;35.59
49515;BME280;35415;47.870;16.058;2023-04-27T13:44:09;97477.59;;;16.38;36.76
49515;BME280;35415;47.870;16.058;2023-04-27T13:46:43;97504.34;;;16.59;37.21
49515;BME280;35415;47.870;16.058;2023-04-27T13:52:13;97528.06;;;16.86;37.94
49515;BME280;35415;47.870;16.058;2023-04-27T13:54:41;97453.88;;;16.58;35.71
49515;BME280;35415;47.870;16.058;2023-04-27T13:57:28;97521.03;;;16.98;38.18
49515;BME280;35415;47.870;16.058;2023-04-27T13:59:57;97384.56;;;16.05;36.45
49515;BME280;35415;47.870;16.058;2023-04-27T14:02:27;97424.81;;;16.31;36.67
49515;BME280;35415;47.870;16.058;2023-04-27T14:04:58;97453.88;;;16.58;35.77
49515;BME280;35415;47.870;16.058;2023-04-27T14:07:26;97449.75;;;16.46;36.59
49515;BME280;35415;47.870;16.058;2023-04-27T14:09:55;97482.03;;;16.62;36.61
49515;BME280;35415;47.870;16.058;2023-04-27T14:12:22;97382.16;;;16.17;36.34
49515;BME280;35415;47.870;16.058;2023-04-27T14:14:52;97445.84;;;16.66;36.66
49515;BME280;35415;47.870;16.058;2023-04-27T14:20:17;97470.69;;;17.01;36.55
49515;BME280;35415;47.870;16.058;2023-04-27T14:22:52;97484.34;;;17.23;35.56
49515;BME280;35415;47.870;16.058;2023-04-27T14:25:19;97474.97;;;17.29;36.17
49515;BME280;35415;47.870;16.058;2023-04-27T14:27:46;97466.41;;;17.36;35.20
49515;BME280;35415;47.870;16.058;2023-04-27T14:30:13;97472.22;;;17.43;34.89
49515;BME280;35415;47.870;16.058;2023-04-27T14:32:40;97490.41;;;17.56;34.34
49515;BME280;35415;47.870;16.058;2023-04-27T14:35:07;97472.78;;;17.54;35.24
49515;BME280;35415;47.870;16.058;2023-04-27T14:37:36;97497.63;;;17.74;34.45
49515;BME280;35415;47.870;16.058;2023-04-27T14:40:06;97497.44;;;17.71;34.44
49515;BME280;35415;47.870;16.058;2023-04-27T14:42:33;97502.09;;;17.70;34.72
49515;BME280;35415;47.870;16.058;2023-04-27T14:45:00;97529.25;;;17.84;35.11
49515;BME280;35415;47.870;16.058;2023-04-27T14:47:27;97494.44;;;17.59;35.41
49515;BME280;35415;47.870;16.058;2023-04-27T14:49:55;97520.09;;;17.66;34.42
49515;BME280;35415;47.870;16.058;2023-04-27T14:52:24;97535.72;;;17.74;34.37
49515;BME280;35415;47.870;16.058;2023-04-27T14:54:55;97459.06;;;17.23;35.71
49515;BME280;35415;47.870;16.058;2023-04-27T14:57:25;97529.28;;;17.70;35.24
49515;BME280;35415;47.870;16.058;2023-04-27T14:59:52;97455.88;;;17.21;35.53
49515;BME280;35415;47.870;16.058;2023-04-27T15:02:21;97402.59;;;16.83;35.82
49515;BME280;35415;47.870;16.058;2023-04-27T15:04:48;97409.94;;;16.83;35.76
49515;BME280;35415;47.870;16.058;2023-04-27T15:07:15;97421.28;;;16.99;35.17
49515;BME280;35415;47.870;16.058;2023-04-27T15:09:46;97466.59;;;17.39;34.41
49515;BME280;35415;47.870;16.058;2023-04-27T15:12:15;97524.34;;;17.72;34.46
49515;BME280;35415;47.870;16.058;2023-04-27T15:14:42;97528.50;;;17.92;35.05
49515;BME280;35415;47.870;16.058;2023-04-27T15:17:12;97485.06;;;17.65;34.82
49515;BME280;35415;47.870;16.058;2023-04-27T15:19:39;97518.50;;;18.01;34.96
49515;BME280;35415;47.870;16.058;2023-04-27T15:22:06;97431.06;;;17.36;35.04
49515;BME280;35415;47.870;16.058;2023-04-27T15:24:34;97386.44;;;17.14;34.02